sensor_id;sensor_type;location;lat;lon;timestamp;temperature;humidity
20315;DHT22;10315;50.958;13.080;2023-07-24T00:07:48;19.10;99.90
20315;DHT22;10315;50.958;13.080;2023-07-24T00:17:51;19.40;99.90
20315;DHT22;10315;50.958;13.080;2023-07-24T00:27:56;19.30;99.90
20315;DHT22;10315;50.958;13.080;2023-07-24T00:37:59;19.20;99.90
20315;DHT22;10315;50.958;13.080;2023-07-24T00:48:01;19.10;99.90
20315;DHT22;10315;50.958;13.080;2023-07-24T00:58:04;19.10;99.90
20315;DHT22;10315;50.958;13.080;2023-07-24T01:08:06;19.10;99.90
20315;DHT22;10315;50.958;13.080;2023-07-24T01:18:10;19.00;99.90
20315;DHT22;10315;50.958;13.080;2023-07-24T01:28:13;18.90;99.90
20315;DHT22;10315;50.958;13.080;2023-07-24T01:38:15;18.70;99.90
20315;DHT22;10315;50.958;13.080;2023-07-24T01:48:18;18.60;99.90
20315;DHT22;10315;50.958;13.080;2023-07-24T01:58:20;18.30;99.90
20315;DHT22;10315;50.958;13.080;2023-07-24T02:08:23;18.20;99.90
20315;DHT22;10315;50.958;13.080;2023-07-24T02:18:25;18.10;99.90
20315;DHT22;10315;50.958;13.080;2023-07-24T02:28:28;18.20;99.90
20315;DHT22;10315;50.958;13.080;2023-07-24T02:38:31;18.20;99.90
20315;DHT22;10315;50.958;13.080;2023-07-24T02:48:34;18.20;99.90
20315;DHT22;10315;50.958;13.080;2023-07-24T02:58:36;18.40;99.90
20315;DHT22;10315;50.958;13.080;2023-07-24T03:08:39;18.50;99.90
20315;DHT22;10315;50.958;13.080;2023-07-24T03:18:41;18.60;99.90
20315;DHT22;10315;50.958;13.080;2023-07-24T03:28:44;18.50;99.90
20315;DHT22;10315;50.958;13.080;2023-07-24T03:38:45;18.40;99.90
20315;DHT22;10315;50.958;13.080;2023-07-24T03:48:48;18.50;99.90
20315;DHT22;10315;50.958;13.080;2023-07-24T03:58:53;18.70;99.90
20315;DHT22;10315;50.958;13.080;2023-07-24T04:08:56;18.70;99.90
20315;DHT22;10315;50.958;13.080;2023-07-24T04:18:57;18.90;99.90
20315;DHT22;10315;50.958;13.080;2023-07-24T04:29:00;18.90;99.90
20315;DHT22;10315;50.958;13.080;2023-07-24T04:39:02;19.00;99.90
20315;DHT22;10315;50.958;13.080;2023-07-24T04:49:05;19.20;99.90
20315;DHT22;10315;50.958;13.080;2023-07-24T04:59:07;19.60;99.90
20315;DHT22;10315;50.958;13.080;2023-07-24T05:09:10;19.90;99.90
20315;DHT22;10315;50.958;13.080;2023-07-24T05:19:12;20.30;99.90
20315;DHT22;10315;50.958;13.080;2023-07-24T05:29:15;20.80;99.90
20315;DHT22;10315;50.958;13.080;2023-07-24T05:39:16;21.10;99.90
20315;DHT22;10315;50.958;13.080;2023-07-24T05:49:19;21.10;99.90
20315;DHT22;10315;50.958;13.080;2023-07-24T05:59:21;21.50;99.90
20315;DHT22;10315;50.958;13.080;2023-07-24T06:09:24;22.10;99.90
20315;DHT22;10315;50.958;13.080;2023-07-24T06:19:25;22.40;99.90
20315;DHT22;10315;50.958;13.080;2023-07-24T06:29:28;22.80;99.90
20315;DHT22;10315;50.958;13.080;2023-07-24T06:39:30;24.50;99.90
20315;DHT22;10315;50.958;13.080;2023-07-24T06:49:35;24.80;99.90
20315;DHT22;10315;50.958;13.080;2023-07-24T06:59:36;24.20;99.90
20315;DHT22;10315;50.958;13.080;2023-07-24T07:09:39;24.40;99.90
20315;DHT22;10315;50.958;13.080;2023-07-24T07:19:41;26.00;99.90
20315;DHT22;10315;50.958;13.080;2023-07-24T07:29:44;25.60;99.90
20315;DHT22;10315;50.958;13.080;2023-07-24T07:39:48;27.00;99.90
20315;DHT22;10315;50.958;13.080;2023-07-24T07:49:51;30.30;98.20
20315;DHT22;10315;50.958;13.080;2023-07-24T07:59:53;34.30;88.20
20315;DHT22;10315;50.958;13.080;2023-07-24T08:09:56;36.10;77.50
20315;DHT22;10315;50.958;13.080;2023-07-24T08:19:57;35.20;74.80
20315;DHT22;10315;50.958;13.080;2023-07-24T08:30:00;30.90;83.70
20315;DHT22;10315;50.958;13.080;2023-07-24T08:40:02;29.90;89.50
20315;DHT22;10315;50.958;13.080;2023-07-24T08:50:07;32.90;84.20
20315;DHT22;10315;50.958;13.080;2023-07-24T09:00:12;31.40;86.50
20315;DHT22;10315;50.958;13.080;2023-07-24T09:10:15;31.00;90.00
20315;DHT22;10315;50.958;13.080;2023-07-24T09:20:18;30.20;90.00
20315;DHT22;10315;50.958;13.080;2023-07-24T09:30:21;28.80;91.50
20315;DHT22;10315;50.958;13.080;2023-07-24T09:40:24;28.00;92.80
20315;DHT22;10315;50.958;13.080;2023-07-24T09:50:27;28.00;92.80
20315;DHT22;10315;50.958;13.080;2023-07-24T10:00:29;28.20;92.70
20315;DHT22;10315;50.958;13.080;2023-07-24T10:10:34;27.80;93.50
20315;DHT22;10315;50.958;13.080;2023-07-24T10:20:38;26.60;95.10
20315;DHT22;10315;50.958;13.080;2023-07-24T10:30:41;25.50;99.90
20315;DHT22;10315;50.958;13.080;2023-07-24T10:40:46;26.60;99.20
20315;DHT22;10315;50.958;13.080;2023-07-24T10:50:50;28.70;96.00
20315;DHT22;10315;50.958;13.080;2023-07-24T11:00:53;30.10;95.10
20315;DHT22;10315;50.958;13.080;2023-07-24T11:10:58;31.30;93.00
20315;DHT22;10315;50.958;13.080;2023-07-24T11:21:01;30.80;92.00
20315;DHT22;10315;50.958;13.080;2023-07-24T11:31:04;29.70;92.70
20315;DHT22;10315;50.958;13.080;2023-07-24T11:41:08;28.40;94.40
20315;DHT22;10315;50.958;13.080;2023-07-24T11:51:12;28.20;95.10
20315;DHT22;10315;50.958;13.080;2023-07-24T12:01:14;26.80;96.60
20315;DHT22;10315;50.958;13.080;2023-07-24T12:11:18;25.00;99.90
20315;DHT22;10315;50.958;13.080;2023-07-24T12:21:19;24.00;99.90
20315;DHT22;10315;50.958;13.080;2023-07-24T12:31:22;21.60;99.90
20315;DHT22;10315;50.958;13.080;2023-07-24T12:41:24;20.50;99.90
20315;DHT22;10315;50.958;13.080;2023-07-24T12:51:27;21.50;99.90
20315;DHT22;10315;50.958;13.080;2023-07-24T13:01:29;22.50;99.90
20315;DHT22;10315;50.958;13.080;2023-07-24T13:11:32;23.50;99.90
20315;DHT22;10315;50.958;13.080;2023-07-24T13:21:34;23.40;99.90
20315;DHT22;10315;50.958;13.080;2023-07-24T13:31:37;23.70;99.90
20315;DHT22;10315;50.958;13.080;2023-07-24T13:41:41;25.30;99.90
20315;DHT22;10315;50.958;13.080;2023-07-24T13:51:44;25.20;99.90
20315;DHT22;10315;50.958;13.080;2023-07-24T14:01:45;25.80;99.90
20315;DHT22;10315;50.958;13.080;2023-07-24T14:11:48;25.60;99.90
20315;DHT22;10315;50.958;13.080;2023-07-24T14:21:50;24.90;99.90
20315;DHT22;10315;50.958;13.080;2023-07-24T14:31:53;24.70;99.90
20315;DHT22;10315;50.958;13.080;2023-07-24T14:41:55;25.00;99.90
20315;DHT22;10315;50.958;13.080;2023-07-24T14:51:58;25.60;99.90
20315;DHT22;10315;50.958;13.080;2023-07-24T15:02:00;25.90;99.90
20315;DHT22;10315;50.958;13.080;2023-07-24T15:12:03;25.30;99.90
20315;DHT22;10315;50.958;13.080;2023-07-24T15:22:05;25.80;99.90
20315;DHT22;10315;50.958;13.080;2023-07-24T15:32:13;25.60;99.90
20315;DHT22;10315;50.958;13.080;2023-07-24T15:42:15;25.70;99.90
20315;DHT22;10315;50.958;13.080;2023-07-24T15:52:18;25.50;99.90
20315;DHT22;10315;50.958;13.080;2023-07-24T16:02:20;25.60;99.90
20315;DHT22;10315;50.958;13.080;2023-07-24T16:12:23;25.70;99.90
20315;DHT22;10315;50.958;13.080;2023-07-24T16:22:25;25.70;99.90
20315;DHT22;10315;50.958;13.080;2023-07-24T16:32:28;25.50;99.90
20315;DHT22;10315;50.958;13.080;2023-07-24T16:42:30;25.10;99.90
20315;DHT22;10315;50.958;13.080;2023-07-24T16:52:34;25.40;99.90
20315;DHT22;10315;50.958;13.080;2023-07-24T17:02:35;25.20;99.90
20315;DHT22;10315;50.958;13.080;2023-07-24T17:12:39;24.90;99.90
20315;DHT22;10315;50.958;13.080;2023-07-24T17:22:41;24.40;99.90
20315;DHT22;10315;50.958;13.080;2023-07-24T17:32:44;24.20;99.90
20315;DHT22;10315;50.958;13.080;2023-07-24T17:42:49;24.00;99.90
20315;DHT22;10315;50.958;13.080;2023-07-24T17:52:53;23.60;99.90
20315;DHT22;10315;50.958;13.080;2023-07-24T18:02:54;23.40;99.90
20315;DHT22;10315;50.958;13.080;2023-07-24T18:12:57;23.10;99.90
20315;DHT22;10315;50.958;13.080;2023-07-24T18:22:59;23.00;99.90
20315;DHT22;10315;50.958;13.080;2023-07-24T18:33:02;23.00;99.90
20315;DHT22;10315;50.958;13.080;2023-07-24T18:43:04;22.40;99.90
20315;DHT22;10315;50.958;13.080;2023-07-24T18:53:07;20.50;99.90
20315;DHT22;10315;50.958;13.080;2023-07-24T19:03:11;19.60;99.90
20315;DHT22;10315;50.958;13.080;2023-07-24T19:13:15;18.80;99.90
20315;DHT22;10315;50.958;13.080;2023-07-24T19:23:16;18.50;99.90
20315;DHT22;10315;50.958;13.080;2023-07-24T19:33:20;18.60;99.90
20315;DHT22;10315;50.958;13.080;2023-07-24T19:43:22;18.50;99.90
20315;DHT22;10315;50.958;13.080;2023-07-24T19:53:25;18.40;99.90
20315;DHT22;10315;50.958;13.080;2023-07-24T20:03:27;18.30;99.90
20315;DHT22;10315;50.958;13.080;2023-07-24T20:13:30;18.10;99.90
20315;DHT22;10315;50.958;13.080;2023-07-24T20:23:32;17.90;99.90
20315;DHT22;10315;50.958;13.080;2023-07-24T20:33:35;16.50;99.90
20315;DHT22;10315;50.958;13.080;2023-07-24T20:43:37;15.90;99.90
20315;DHT22;10315;50.958;13.080;2023-07-24T20:53:43;15.60;99.90
20315;DHT22;10315;50.958;13.080;2023-07-24T21:03:45;15.50;99.90
20315;DHT22;10315;50.958;13.080;2023-07-24T21:13:48;15.60;99.90
20315;DHT22;10315;50.958;13.080;2023-07-24T21:23:49;15.50;99.90
20315;DHT22;10315;50.958;13.080;2023-07-24T21:33:52;15.40;99.90
20315;DHT22;10315;50.958;13.080;2023-07-24T21:43:54;15.50;99.90
20315;DHT22;10315;50.958;13.080;2023-07-24T21:53:57;15.50;99.90
20315;DHT22;10315;50.958;13.080;2023-07-24T22:03:59;15.40;99.90
20315;DHT22;10315;50.958;13.080;2023-07-24T22:14:02;15.30;99.90
20315;DHT22;10315;50.958;13.080;2023-07-24T22:24:04;15.10;99.90
20315;DHT22;10315;50.958;13.080;2023-07-24T22:34:07;15.00;99.90
20315;DHT22;10315;50.958;13.080;2023-07-24T22:44:10;14.90;99.90
20315;DHT22;10315;50.958;13.080;2023-07-24T22:54:13;14.90;99.90
20315;DHT22;10315;50.958;13.080;2023-07-24T23:04:15;15.00;99.90
20315;DHT22;10315;50.958;13.080;2023-07-24T23:14:19;15.10;99.90
20315;DHT22;10315;50.958;13.080;2023-07-24T23:24:20;15.20;99.90
20315;DHT22;10315;50.958;13.080;2023-07-24T23:34:23;15.20;99.90
20315;DHT22;10315;50.958;13.080;2023-07-24T23:44:25;15.20;99.90
20315;DHT22;10315;50.958;13.080;2023-07-24T23:54:28;15.30;99.90
